createdAt,value
2018-07-19T00:01:20.218Z,99483.03
2018-07-19T00:03:50.845Z,99483.50
2018-07-19T00:06:20.255Z,99485.48
2018-07-19T00:08:49.903Z,99484.49
2018-07-19T00:11:20.954Z,99485.82
2018-07-19T00:13:50.729Z,99486.34
2018-07-19T00:16:20.399Z,99488.13
2018-07-19T00:18:50.491Z,99488.73
2018-07-19T00:21:20.687Z,99488.21
2018-07-19T00:23:50.294Z,99489.23
2018-07-19T00:26:20.211Z,99493.26
2018-07-19T00:28:49.716Z,99491.47
2018-07-19T00:31:18.724Z,99493.80
2018-07-19T00:33:47.259Z,99497.13
2018-07-19T00:36:16.231Z,99489.82
2018-07-19T00:38:44.791Z,99494.22
2018-07-19T00:41:15.639Z,99488.22
2018-07-19T00:43:44.281Z,99489.94
2018-07-19T00:46:13.217Z,99487.38
2018-07-19T00:48:41.784Z,99490.87
2018-07-19T00:51:10.696Z,99491.39
2018-07-19T00:53:39.252Z,99489.07
2018-07-19T00:56:07.873Z,99488.96
2018-07-19T00:58:38.655Z,99493.78
2018-07-19T01:01:07.477Z,99489.28
2018-07-19T01:03:36.068Z,99484.79
2018-07-19T01:06:06.419Z,99483.83
2018-07-19T01:08:35.051Z,99486.20
2018-07-19T01:11:03.637Z,99484.44
2018-07-19T01:13:32.177Z,99488.60
2018-07-19T01:16:02.154Z,99490.89
2018-07-19T01:18:30.774Z,99495.63
2018-07-19T01:20:59.366Z,99492.95
2018-07-19T01:23:27.928Z,99490.13
2018-07-19T01:25:56.551Z,99483.27
2018-07-19T01:28:25.212Z,99485.33
2018-07-19T01:30:53.812Z,99484.83
2018-07-19T01:33:22.520Z,99480.79
2018-07-19T01:35:51.681Z,99486.12
2018-07-19T01:38:20.553Z,99480.17
2018-07-19T01:40:50.681Z,99477.23
2018-07-19T01:43:19.379Z,99477.11
2018-07-19T01:45:47.972Z,99476.28
2018-07-19T01:48:16.493Z,99475.77
2018-07-19T01:50:45.056Z,99474.91
2018-07-19T01:53:13.589Z,99484.52
2018-07-19T01:55:42.156Z,99482.70
2018-07-19T01:58:10.701Z,99478.45
2018-07-19T02:00:39.260Z,99484.92
2018-07-19T02:03:07.813Z,99480.83
2018-07-19T02:05:36.341Z,99480.55
2018-07-19T02:08:04.925Z,99479.55
2018-07-19T02:10:33.446Z,99477.65
2018-07-19T02:13:02.032Z,99480.08
2018-07-19T02:15:30.565Z,99478.58
2018-07-19T02:17:59.136Z,99476.14
2018-07-19T02:20:27.652Z,99470.23
2018-07-19T02:22:56.228Z,99474.11
2018-07-19T02:25:24.759Z,99472.09
2018-07-19T02:27:53.579Z,99464.54
2018-07-19T02:30:22.092Z,99469.11
2018-07-19T02:32:51.640Z,99464.88
2018-07-19T02:35:20.168Z,99474.20
2018-07-19T02:37:48.769Z,99476.59
2018-07-19T02:40:17.320Z,99475.74
2018-07-19T02:42:45.878Z,99468.76
2018-07-19T02:45:14.402Z,99465.03
2018-07-19T02:47:42.968Z,99471.88
2018-07-19T02:50:11.512Z,99465.75
2018-07-19T02:52:40.125Z,99459.40
2018-07-19T02:55:08.712Z,99457.70
2018-07-19T02:57:37.353Z,99462.42
2018-07-19T03:00:06.028Z,99468.34
2018-07-19T03:02:34.616Z,99463.39
2018-07-19T03:05:03.176Z,99460.41
2018-07-19T03:07:31.748Z,99464.60
2018-07-19T03:10:00.272Z,99467.25
2018-07-19T03:12:28.824Z,99470.61
2018-07-19T03:14:57.358Z,99476.84
2018-07-19T03:17:25.925Z,99477.34
2018-07-19T03:19:54.455Z,99475.03
2018-07-19T03:22:23.412Z,99470.13
2018-07-19T03:24:51.940Z,99468.44
2018-07-19T03:27:20.495Z,99464.36
2018-07-19T03:29:48.999Z,99467.59
2018-07-19T03:32:17.568Z,99468.69
2018-07-19T03:34:46.088Z,99465.57
2018-07-19T03:37:14.689Z,99465.21
2018-07-19T03:39:43.423Z,99463.03
2018-07-19T03:42:11.984Z,99465.79
2018-07-19T03:44:40.516Z,99466.39
2018-07-19T03:47:09.073Z,99469.73
2018-07-19T03:49:37.692Z,99475.23
2018-07-19T03:52:06.307Z,99467.98
2018-07-19T03:54:34.841Z,99468.69
2018-07-19T03:57:03.425Z,99467.45
2018-07-19T03:59:31.990Z,99469.48
2018-07-19T04:02:00.877Z,99472.52
2018-07-19T04:04:29.423Z,99476.70
2018-07-19T04:06:57.960Z,99473.47
2018-07-19T04:09:26.574Z,99477.06
2018-07-19T04:11:55.100Z,99474.93
2018-07-19T04:14:24.172Z,99477.78
2018-07-19T04:16:52.688Z,99479.94
2018-07-19T04:19:22.090Z,99471.56
2018-07-19T04:21:50.642Z,99467.45
2018-07-19T04:24:19.225Z,99469.52
2018-07-19T04:26:47.744Z,99469.28
2018-07-19T04:29:16.316Z,99468.93
2018-07-19T04:31:44.847Z,99474.70
2018-07-19T04:34:13.424Z,99480.94
2018-07-19T04:36:41.977Z,99469.17
2018-07-19T04:39:10.912Z,99468.33
2018-07-19T04:41:39.462Z,99470.12
2018-07-19T04:44:08.024Z,99474.45
2018-07-19T04:46:36.648Z,99476.49
2018-07-19T04:49:05.283Z,99476.00
2018-07-19T04:51:33.812Z,99473.86
2018-07-19T04:54:02.373Z,99476.97
2018-07-19T04:56:30.889Z,99476.12
2018-07-19T04:58:59.455Z,99478.39
2018-07-19T05:01:27.984Z,99477.68
2018-07-19T05:03:56.552Z,99479.11
2018-07-19T05:06:25.095Z,99475.83
2018-07-19T05:08:54.376Z,99484.61
2018-07-19T05:11:22.907Z,99486.37
2018-07-19T05:13:51.479Z,99489.94
2018-07-19T05:16:20.030Z,99489.14
2018-07-19T05:18:48.591Z,99485.38
2018-07-19T05:21:17.126Z,99485.55
2018-07-19T05:23:45.685Z,99480.30
2018-07-19T05:26:14.326Z,99489.16
2018-07-19T05:28:42.936Z,99487.12
2018-07-19T05:31:11.460Z,99482.46
2018-07-19T05:33:40.024Z,99486.94
2018-07-19T05:36:09.000Z,99488.45
2018-07-19T05:38:37.580Z,99489.71
2018-07-19T05:41:06.388Z,99492.53
2018-07-19T05:43:34.940Z,99488.37
2018-07-19T05:46:03.465Z,99492.70
2018-07-19T05:48:32.076Z,99493.96
2018-07-19T05:51:00.583Z,99492.68
2018-07-19T05:53:29.107Z,99488.28
2018-07-19T05:55:57.663Z,99490.27
2018-07-19T05:58:26.200Z,99489.07
2018-07-19T06:00:54.761Z,99496.47
2018-07-19T06:03:23.312Z,99496.03
2018-07-19T06:05:51.864Z,99492.34
2018-07-19T06:08:20.389Z,99489.24
2018-07-19T06:10:48.945Z,99493.19
2018-07-19T06:13:17.566Z,99497.45
2018-07-19T06:15:46.188Z,99495.55
2018-07-19T06:18:14.720Z,99497.87
2018-07-19T06:20:43.299Z,99497.45
2018-07-19T06:23:11.831Z,99493.52
2018-07-19T06:25:40.397Z,99493.88
2018-07-19T06:28:08.968Z,99496.92
2018-07-19T06:30:37.552Z,99494.83
2018-07-19T06:33:06.392Z,99495.09
2018-07-19T06:35:34.972Z,99496.58
2018-07-19T06:38:03.554Z,99495.90
2018-07-19T06:40:32.129Z,99499.03
2018-07-19T06:43:00.719Z,99499.13
2018-07-19T06:45:29.304Z,99498.63
2018-07-19T06:47:57.865Z,99500.41
2018-07-19T06:50:26.425Z,99495.27
2018-07-19T06:52:54.955Z,99502.08
2018-07-19T06:55:23.509Z,99506.14
2018-07-19T06:57:52.065Z,99507.79
2018-07-19T07:00:20.656Z,99504.09
2018-07-19T07:02:49.200Z,99502.91
2018-07-19T07:05:17.769Z,99495.91
2018-07-19T07:07:46.317Z,99497.81
2018-07-19T07:10:14.877Z,99499.16
2018-07-19T07:12:50.057Z,99502.84
2018-07-19T07:15:18.624Z,99495.80
2018-07-19T07:17:47.149Z,99504.87
2018-07-19T07:20:15.720Z,99502.92
2018-07-19T07:22:44.252Z,99505.17
2018-07-19T07:25:12.828Z,99505.17
2018-07-19T07:27:41.449Z,99503.56
2018-07-19T07:30:10.025Z,99504.33
2018-07-19T07:32:38.777Z,99508.81
2018-07-19T07:35:07.444Z,99492.30
2018-07-19T07:37:36.019Z,99499.68
2018-07-19T07:40:05.013Z,99501.05
2018-07-19T07:42:33.589Z,99494.73
2018-07-19T07:45:02.153Z,99499.09
2018-07-19T07:47:30.732Z,99499.75
2018-07-19T07:49:59.247Z,99495.60
2018-07-19T07:52:27.849Z,99501.45
2018-07-19T07:54:56.416Z,99499.11
2018-07-19T07:57:25.008Z,99501.45
2018-07-19T07:59:53.516Z,99507.20
2018-07-19T08:02:22.119Z,99499.66
2018-07-19T08:04:50.660Z,99497.83
2018-07-19T08:07:19.214Z,99505.36
2018-07-19T08:09:47.756Z,99500.66
2018-07-19T08:12:16.785Z,99498.15
2018-07-19T08:14:45.455Z,99499.30
2018-07-19T08:17:14.049Z,99497.11
2018-07-19T08:19:42.581Z,99500.13
2018-07-19T08:22:11.160Z,99496.75
2018-07-19T08:24:39.784Z,99485.05
2018-07-19T08:27:08.584Z,99497.59
2018-07-19T08:29:37.193Z,99493.27
2018-07-19T08:32:05.843Z,99490.41
2018-07-19T08:34:34.379Z,99495.72
2018-07-19T08:37:03.028Z,99491.50
2018-07-19T08:39:31.565Z,99491.39
2018-07-19T08:42:00.151Z,99486.82
2018-07-19T08:44:28.719Z,99490.02
2018-07-19T08:47:00.337Z,99488.84
2018-07-19T08:49:28.985Z,99487.89
2018-07-19T08:51:58.356Z,99490.19
2018-07-19T08:54:30.146Z,99491.27
2018-07-19T08:57:04.163Z,99489.45
2018-07-19T08:59:41.045Z,99489.33
2018-07-19T09:02:09.610Z,99490.10
2018-07-19T09:04:38.169Z,99490.81
2018-07-19T09:07:06.857Z,99488.48
2018-07-19T09:09:35.389Z,99491.28
2018-07-19T09:12:09.357Z,99486.83
2018-07-19T09:14:45.432Z,99483.11
2018-07-19T09:17:19.135Z,99478.31
2018-07-19T09:19:54.413Z,99478.75
2018-07-19T09:22:28.836Z,99474.82
2018-07-19T09:25:05.817Z,99474.22
2018-07-19T09:27:40.260Z,99481.57
2018-07-19T09:30:18.943Z,99475.17
2018-07-19T09:32:53.627Z,99479.03
2018-07-19T09:35:28.758Z,99471.46
2018-07-19T09:38:06.457Z,99472.70
2018-07-19T09:40:43.382Z,99472.06
2018-07-19T09:43:19.484Z,99475.30
2018-07-19T09:45:55.768Z,99482.95
2018-07-19T09:48:38.487Z,99473.71
2018-07-19T09:51:17.523Z,99476.09
2018-07-19T09:53:53.465Z,99470.48
2018-07-19T09:59:10.425Z,99459.37
2018-07-19T10:01:44.471Z,99456.56
2018-07-19T10:04:24.269Z,99453.62
2018-07-19T10:07:00.204Z,99452.52
2018-07-19T10:09:41.121Z,99462.83
2018-07-19T10:12:17.776Z,99461.61
2018-07-19T10:14:50.300Z,99456.06
2018-07-19T10:17:21.265Z,99457.09
2018-07-19T10:19:53.901Z,99463.10
2018-07-19T10:22:27.598Z,99454.53
2018-07-19T10:24:56.133Z,99449.39
2018-07-19T10:27:24.703Z,99452.36
2018-07-19T10:29:53.240Z,99446.25
2018-07-19T10:32:24.035Z,99446.97
2018-07-19T10:34:52.553Z,99446.17
2018-07-19T10:37:21.116Z,99445.34
2018-07-19T10:39:49.678Z,99441.36
2018-07-19T10:42:18.374Z,99444.18
2018-07-19T10:44:46.953Z,99446.08
2018-07-19T10:47:15.481Z,99445.47
2018-07-19T10:49:44.050Z,99441.53
2018-07-19T10:52:12.569Z,99443.45
2018-07-19T10:54:41.580Z,99447.59
2018-07-19T10:57:10.246Z,99431.94
2018-07-19T10:59:38.801Z,99437.90
2018-07-19T11:02:07.370Z,99439.05
2018-07-19T11:04:35.916Z,99440.42
2018-07-19T11:07:04.996Z,99434.52
2018-07-19T11:09:33.836Z,99428.87
2018-07-19T11:12:04.187Z,99429.77
2018-07-19T11:14:32.800Z,99427.53
2018-07-19T11:17:02.105Z,99427.44
2018-07-19T11:19:30.939Z,99430.27
2018-07-19T11:22:00.024Z,99424.41
2018-07-19T11:24:29.600Z,99426.42
2018-07-19T11:27:00.417Z,99424.51
2018-07-19T11:29:28.969Z,99427.45
2018-07-19T11:31:57.486Z,99419.13
2018-07-19T11:34:26.026Z,99418.02
2018-07-19T11:36:54.591Z,99420.81
2018-07-19T11:39:23.138Z,99418.41
2018-07-19T11:41:51.666Z,99414.67
2018-07-19T11:44:20.228Z,99417.22
2018-07-19T11:46:48.754Z,99413.77
2018-07-19T11:49:17.397Z,99412.81
2018-07-19T11:51:45.909Z,99401.81
2018-07-19T11:54:14.475Z,99402.87
2018-07-19T11:56:42.987Z,99404.09
2018-07-19T11:59:11.549Z,99396.31
2018-07-19T12:01:41.659Z,99402.54
2018-07-19T12:04:10.280Z,99391.94
2018-07-19T12:06:38.884Z,99398.39
2018-07-19T12:09:10.181Z,99393.98
2018-07-19T12:11:38.748Z,99389.53
2018-07-19T12:14:07.395Z,99393.41
2018-07-19T12:16:35.906Z,99388.61
2018-07-19T12:19:04.509Z,99387.80
2018-07-19T12:21:33.020Z,99389.48
2018-07-19T12:24:01.581Z,99386.45
2018-07-19T12:26:31.558Z,99387.48
2018-07-19T12:29:00.112Z,99384.79
2018-07-19T12:31:29.080Z,99386.55
2018-07-19T12:33:57.692Z,99375.07
2018-07-19T12:36:26.266Z,99384.48
2018-07-19T12:38:54.789Z,99380.98
2018-07-19T12:41:23.354Z,99374.47
2018-07-19T12:43:51.888Z,99378.81
2018-07-19T12:46:20.754Z,99377.50
2018-07-19T12:48:49.312Z,99374.61
2018-07-19T12:51:17.930Z,99376.35
2018-07-19T12:53:46.446Z,99374.18
2018-07-19T12:56:15.008Z,99372.47
2018-07-19T12:58:43.524Z,99370.47
2018-07-19T13:01:12.069Z,99366.81
2018-07-19T13:03:40.592Z,99366.69
2018-07-19T13:06:09.869Z,99364.19
2018-07-19T13:08:39.778Z,99370.53
2018-07-19T13:11:09.407Z,99368.16
2018-07-19T13:13:38.877Z,99364.96
2018-07-19T13:16:07.601Z,99365.52
2018-07-19T13:18:37.595Z,99358.73
2018-07-19T13:21:06.177Z,99357.73
2018-07-19T13:23:34.709Z,99355.81
2018-07-19T13:26:03.268Z,99362.11
2018-07-19T13:28:33.225Z,99354.46
2018-07-19T13:31:01.939Z,99355.70
2018-07-19T13:33:30.425Z,99351.53
2018-07-19T13:36:00.046Z,99351.59
2018-07-19T13:38:28.607Z,99351.34
2018-07-19T13:40:57.172Z,99343.99
2018-07-19T13:43:25.680Z,99344.98
2018-07-19T13:45:54.227Z,99342.39
2018-07-19T13:48:24.397Z,99344.13
2018-07-19T13:50:52.985Z,99339.38
2018-07-19T13:53:34.851Z,99342.99
2018-07-19T13:56:06.442Z,99335.53
2018-07-19T13:58:37.309Z,99337.16
2018-07-19T14:01:06.077Z,99335.12
2018-07-19T14:03:36.631Z,99334.67
2018-07-19T14:06:06.064Z,99327.88
2018-07-19T14:08:36.113Z,99324.00
2018-07-19T14:11:06.474Z,99318.50
2018-07-19T14:13:36.431Z,99323.97
2018-07-19T14:16:06.750Z,99319.64
2018-07-19T14:18:35.264Z,99318.09
2018-07-19T14:21:03.837Z,99315.84
2018-07-19T14:23:32.375Z,99317.47
2018-07-19T14:26:01.456Z,99314.00
2018-07-19T14:28:30.156Z,99314.56
2018-07-19T14:30:58.961Z,99310.02
2018-07-19T14:33:28.197Z,99301.84
2018-07-19T14:36:03.519Z,99309.23
2018-07-19T14:38:35.176Z,99306.81
2018-07-19T14:41:10.230Z,99303.70
2018-07-19T14:43:46.554Z,99296.80
2018-07-19T14:46:22.137Z,99296.42
2018-07-19T14:48:56.636Z,99296.31
2018-07-19T14:51:31.418Z,99293.59
2018-07-19T14:54:05.199Z,99296.80
2018-07-19T14:56:39.777Z,99294.50
2018-07-19T14:59:19.209Z,99285.96
2018-07-19T15:01:55.401Z,99285.27
2018-07-19T15:04:30.560Z,99284.17
2018-07-19T15:07:04.249Z,99280.58
2018-07-19T15:09:39.747Z,99272.40
2018-07-19T15:12:13.028Z,99276.78
2018-07-19T15:14:46.385Z,99276.19
2018-07-19T15:17:22.720Z,99272.09
2018-07-19T15:19:58.258Z,99268.73
2018-07-19T15:22:29.558Z,99270.75
2018-07-19T15:25:03.150Z,99272.75
2018-07-19T15:27:38.083Z,99262.38
2018-07-19T15:30:11.047Z,99257.80
2018-07-19T15:32:45.735Z,99263.67
2018-07-19T15:35:19.384Z,99264.53
2018-07-19T15:37:55.232Z,99259.52
2018-07-19T15:40:29.221Z,99259.95
2018-07-19T15:43:02.276Z,99260.72
2018-07-19T15:45:31.465Z,99249.25
2018-07-19T15:48:00.030Z,99256.20
2018-07-19T15:50:30.062Z,99250.73
2018-07-19T15:52:58.685Z,99256.90
2018-07-19T15:55:28.276Z,99250.79
2018-07-19T15:57:56.888Z,99249.68
2018-07-19T16:00:25.433Z,99250.47
2018-07-19T16:02:53.977Z,99243.09
2018-07-19T16:05:22.807Z,99251.69
2018-07-19T16:07:52.739Z,99249.50
2018-07-19T16:10:21.835Z,99248.89
2018-07-19T16:12:52.100Z,99247.88
2018-07-19T16:15:20.645Z,99250.41
2018-07-19T16:17:49.265Z,99244.33
2018-07-19T16:20:18.721Z,99249.55
2018-07-19T16:22:47.332Z,99244.04
2018-07-19T16:25:16.937Z,99236.77
2018-07-19T16:27:45.588Z,99236.91
2018-07-19T16:30:14.099Z,99241.84
2018-07-19T16:32:43.672Z,99238.09
2018-07-19T16:35:12.580Z,99235.48
2018-07-19T16:37:41.167Z,99236.42
2018-07-19T16:40:09.813Z,99236.11
2018-07-19T16:42:39.026Z,99227.34
2018-07-19T16:45:07.612Z,99232.20
2018-07-19T16:47:37.551Z,99222.13
2018-07-19T16:50:10.049Z,99219.42
2018-07-19T16:52:38.683Z,99219.94
2018-07-19T16:55:07.888Z,99215.60
2018-07-19T16:57:36.440Z,99216.20
2018-07-19T17:00:05.665Z,99226.42
2018-07-19T17:02:34.220Z,99226.44
2018-07-19T17:05:03.326Z,99195.45
2018-07-19T17:07:32.112Z,99223.03
2018-07-19T17:10:02.153Z,99223.81
2018-07-19T17:12:31.072Z,99215.84
2018-07-19T17:14:59.755Z,99220.42
2018-07-19T17:17:28.297Z,99222.70
2018-07-19T17:19:56.951Z,99215.27
2018-07-19T17:22:25.521Z,99210.36
2018-07-19T17:24:54.060Z,99216.08
2018-07-19T17:27:25.396Z,99224.37
2018-07-19T17:29:54.693Z,99210.92
2018-07-19T17:32:23.973Z,99213.77
2018-07-19T17:34:53.480Z,99210.94
2018-07-19T17:37:22.705Z,99214.71
2018-07-19T17:39:52.145Z,99209.31
2018-07-19T17:42:23.663Z,99214.91
2018-07-19T17:44:53.753Z,99224.84
2018-07-19T17:47:22.941Z,99218.60
2018-07-19T17:49:52.308Z,99214.14
2018-07-19T17:52:20.890Z,99212.47
2018-07-19T17:54:49.783Z,99219.71
2018-07-19T17:57:23.332Z,99225.27
2018-07-19T17:59:56.622Z,99221.88
2018-07-19T18:02:29.822Z,99214.66
2018-07-19T18:05:02.619Z,99224.80
2018-07-19T18:07:35.879Z,99223.86
2018-07-19T18:10:09.432Z,99231.41
2018-07-19T18:12:43.013Z,99226.98
2018-07-19T18:15:16.016Z,99219.37
2018-07-19T18:17:50.619Z,99217.19
2018-07-19T18:20:23.786Z,99216.06
2018-07-19T18:22:56.821Z,99222.75
2018-07-19T18:25:28.733Z,99215.67
2018-07-19T18:28:02.691Z,99207.48
2018-07-19T18:30:36.288Z,99212.45
2018-07-19T18:33:05.354Z,99204.77
2018-07-19T18:35:34.072Z,99199.54
2018-07-19T18:38:03.116Z,99207.86
2018-07-19T18:40:31.994Z,99204.95
2018-07-19T18:43:00.968Z,99205.27
2018-07-19T18:45:29.593Z,99205.63
2018-07-19T18:47:58.553Z,99205.32
2018-07-19T18:50:27.260Z,99198.27
2018-07-19T18:52:55.894Z,99200.54
2018-07-19T18:55:24.631Z,99207.70
2018-07-19T18:57:53.699Z,99207.39
2018-07-19T19:00:22.623Z,99200.20
2018-07-19T19:02:51.368Z,99210.73
2018-07-19T19:05:20.032Z,99211.14
2018-07-19T19:07:48.684Z,99205.00
2018-07-19T19:10:17.278Z,99201.70
2018-07-19T19:12:46.160Z,99206.04
2018-07-19T19:15:14.920Z,99212.44
2018-07-19T19:17:43.432Z,99209.52
2018-07-19T19:20:12.269Z,99206.88
2018-07-19T19:22:41.337Z,99217.47
2018-07-19T19:25:09.937Z,99212.73
2018-07-19T19:27:38.609Z,99219.12
2018-07-19T19:30:07.776Z,99212.58
2018-07-19T19:32:36.565Z,99221.39
2018-07-19T19:35:05.258Z,99223.16
2018-07-19T19:37:34.437Z,99230.15
2018-07-19T19:40:03.579Z,99225.59
2018-07-19T19:42:32.761Z,99227.15
2018-07-19T19:45:01.623Z,99232.31
2018-07-19T19:47:30.232Z,99230.29
2018-07-19T19:49:58.789Z,99235.59
2018-07-19T19:52:27.353Z,99236.58
2018-07-19T19:54:55.885Z,99237.98
2018-07-19T19:57:24.900Z,99247.25
2018-07-19T19:59:53.710Z,99247.36
2018-07-19T20:02:22.522Z,99249.02
2018-07-19T20:04:57.660Z,99250.28
2018-07-19T20:07:30.274Z,99254.08
2018-07-19T20:10:03.730Z,99254.91
2018-07-19T20:12:37.241Z,99254.15
2018-07-19T20:15:06.070Z,99248.45
2018-07-19T20:17:34.616Z,99248.25
2018-07-19T20:22:30.053Z,99253.73
2018-07-19T20:24:58.653Z,99248.03
2018-07-19T20:27:33.444Z,99246.83
2018-07-19T20:30:07.023Z,99243.81
2018-07-19T20:32:43.759Z,99242.14
2018-07-19T20:35:17.941Z,99249.14
2018-07-19T20:37:53.675Z,99250.82
2018-07-19T20:40:26.981Z,99245.64
2018-07-19T20:43:01.061Z,99257.47
2018-07-19T20:45:36.639Z,99252.64
2018-07-19T20:48:11.410Z,99254.14
2018-07-19T20:50:48.925Z,99253.52
2018-07-19T20:53:22.949Z,99248.83
2018-07-19T20:55:57.887Z,99254.84
2018-07-19T20:58:30.376Z,99248.28
2018-07-19T21:01:02.305Z,99245.81
2018-07-19T21:03:35.122Z,99250.11
2018-07-19T21:06:07.766Z,99250.78
2018-07-19T21:08:40.485Z,99246.59
2018-07-19T21:11:14.253Z,99252.13
2018-07-19T21:13:47.017Z,99246.25
2018-07-19T21:16:21.439Z,99248.08
2018-07-19T21:18:54.042Z,99246.25
2018-07-19T21:21:26.564Z,99252.41
2018-07-19T21:24:01.654Z,99249.91
2018-07-19T21:26:35.773Z,99245.17
2018-07-19T21:29:09.604Z,99249.20
2018-07-19T21:31:43.087Z,99249.67
2018-07-19T21:34:16.670Z,99246.21
2018-07-19T21:36:51.592Z,99249.02
2018-07-19T21:39:25.068Z,99242.59
2018-07-19T21:41:59.617Z,99245.23
2018-07-19T21:44:33.382Z,99244.48
2018-07-19T21:47:06.114Z,99242.69
2018-07-19T21:49:38.824Z,99247.33
2018-07-19T21:52:12.816Z,99248.72
2018-07-19T21:54:45.904Z,99243.18
2018-07-19T21:57:21.027Z,99251.73
2018-07-19T21:59:53.549Z,99246.20
2018-07-19T22:02:23.428Z,99249.97
2018-07-19T22:04:52.500Z,99257.30
2018-07-19T22:07:21.538Z,99249.38
2018-07-19T22:09:50.068Z,99250.20
2018-07-19T22:12:20.239Z,99257.89
2018-07-19T22:14:48.763Z,99249.88
2018-07-19T22:17:17.314Z,99255.75
2018-07-19T22:19:45.837Z,99255.20
2018-07-19T22:22:14.416Z,99243.25
2018-07-19T22:24:48.167Z,99256.48
2018-07-19T22:27:18.205Z,99254.13
2018-07-19T22:29:48.049Z,99259.92
2018-07-19T22:32:19.849Z,99265.19
2018-07-19T22:34:50.459Z,99267.36
2018-07-19T22:37:21.166Z,99255.22
2018-07-19T22:39:50.910Z,99255.98
2018-07-19T22:42:20.890Z,99254.07
2018-07-19T22:44:51.208Z,99258.30
2018-07-19T22:47:21.101Z,99253.63
2018-07-19T22:49:51.152Z,99254.09
2018-07-19T22:52:21.621Z,99254.34
2018-07-19T22:54:52.231Z,99260.17
2018-07-19T22:57:22.599Z,99259.86
2018-07-19T22:59:52.768Z,99261.70
2018-07-19T23:02:22.690Z,99252.66
2018-07-19T23:04:52.860Z,99258.00
2018-07-19T23:07:22.927Z,99254.25
2018-07-19T23:09:53.149Z,99249.22
2018-07-19T23:12:25.884Z,99254.22
2018-07-19T23:14:56.557Z,99257.48
2018-07-19T23:17:26.944Z,99249.13
2018-07-19T23:19:56.293Z,99249.22
2018-07-19T23:22:27.253Z,99246.42
2018-07-19T23:24:57.341Z,99248.90
2018-07-19T23:27:27.217Z,99252.53
2018-07-19T23:29:57.313Z,99253.97
2018-07-19T23:32:27.264Z,99255.73
2018-07-19T23:34:56.202Z,99253.83
2018-07-19T23:37:31.712Z,99248.86
2018-07-19T23:40:07.538Z,99253.44
2018-07-19T23:42:40.093Z,99245.22
2018-07-19T23:45:26.420Z,99245.16
2018-07-19T23:47:55.768Z,99245.49
2018-07-19T23:50:24.308Z,99235.98
2018-07-19T23:52:52.855Z,99243.62
2018-07-19T23:55:21.760Z,99241.72
2018-07-19T23:57:50.296Z,99240.34
